sensor_id;sensor_type;location;lat;lon;timestamp;temperature;humidity
25963;DHT22;13760;52.588;13.406;2023-03-19T00:02:12;8.60;99.90
25963;DHT22;13760;52.588;13.406;2023-03-19T00:04:37;8.60;99.90
25963;DHT22;13760;52.588;13.406;2023-03-19T00:07:03;8.60;99.90
25963;DHT22;13760;52.588;13.406;2023-03-19T00:09:29;8.60;99.90
25963;DHT22;13760;52.588;13.406;2023-03-19T00:11:54;8.50;99.90
25963;DHT22;13760;52.588;13.406;2023-03-19T00:14:20;8.50;99.90
25963;DHT22;13760;52.588;13.406;2023-03-19T00:16:46;8.50;99.90
25963;DHT22;13760;52.588;13.406;2023-03-19T00:19:11;8.50;99.90
25963;DHT22;13760;52.588;13.406;2023-03-19T00:21:37;8.40;99.90
25963;DHT22;13760;52.588;13.406;2023-03-19T00:24:03;8.40;99.90
25963;DHT22;13760;52.588;13.406;2023-03-19T00:26:32;8.40;99.90
25963;DHT22;13760;52.588;13.406;2023-03-19T00:28:58;8.40;99.90
25963;DHT22;13760;52.588;13.406;2023-03-19T00:31:24;8.40;99.90
25963;DHT22;13760;52.588;13.406;2023-03-19T00:33:51;8.40;99.90
25963;DHT22;13760;52.588;13.406;2023-03-19T00:36:17;8.40;99.90
25963;DHT22;13760;52.588;13.406;2023-03-19T00:38:44;8.40;99.90
25963;DHT22;13760;52.588;13.406;2023-03-19T00:41:10;8.30;99.90
25963;DHT22;13760;52.588;13.406;2023-03-19T00:43:36;8.30;99.90
25963;DHT22;13760;52.588;13.406;2023-03-19T00:46:03;8.20;99.90
25963;DHT22;13760;52.588;13.406;2023-03-19T00:48:28;8.20;99.90
25963;DHT22;13760;52.588;13.406;2023-03-19T00:50:54;8.20;99.90
25963;DHT22;13760;52.588;13.406;2023-03-19T00:53:20;8.10;99.90
25963;DHT22;13760;52.588;13.406;2023-03-19T00:55:46;8.00;99.90
25963;DHT22;13760;52.588;13.406;2023-03-19T00:58:12;8.00;99.90
25963;DHT22;13760;52.588;13.406;2023-03-19T01:00:37;8.00;99.90
25963;DHT22;13760;52.588;13.406;2023-03-19T01:03:04;7.90;99.90
25963;DHT22;13760;52.588;13.406;2023-03-19T01:05:31;7.90;99.90
25963;DHT22;13760;52.588;13.406;2023-03-19T01:07:58;7.90;99.90
25963;DHT22;13760;52.588;13.406;2023-03-19T01:10:24;7.80;99.90
25963;DHT22;13760;52.588;13.406;2023-03-19T01:12:49;7.80;99.90
25963;DHT22;13760;52.588;13.406;2023-03-19T01:15:15;7.70;99.90
25963;DHT22;13760;52.588;13.406;2023-03-19T01:17:41;7.70;99.90
25963;DHT22;13760;52.588;13.406;2023-03-19T01:20:09;7.70;99.90
25963;DHT22;13760;52.588;13.406;2023-03-19T01:22:41;7.70;99.90
25963;DHT22;13760;52.588;13.406;2023-03-19T01:25:09;7.70;99.90
25963;DHT22;13760;52.588;13.406;2023-03-19T01:27:36;7.60;99.90
25963;DHT22;13760;52.588;13.406;2023-03-19T01:30:02;7.60;99.90
25963;DHT22;13760;52.588;13.406;2023-03-19T01:32:28;7.60;99.90
25963;DHT22;13760;52.588;13.406;2023-03-19T01:34:54;7.60;99.90
25963;DHT22;13760;52.588;13.406;2023-03-19T01:37:19;7.60;99.90
25963;DHT22;13760;52.588;13.406;2023-03-19T01:39:45;7.60;99.90
25963;DHT22;13760;52.588;13.406;2023-03-19T01:42:11;7.60;99.90
25963;DHT22;13760;52.588;13.406;2023-03-19T01:44:38;7.50;99.90
25963;DHT22;13760;52.588;13.406;2023-03-19T01:47:17;7.50;99.90
25963;DHT22;13760;52.588;13.406;2023-03-19T01:49:50;7.50;99.90
25963;DHT22;13760;52.588;13.406;2023-03-19T01:52:17;7.40;99.90
25963;DHT22;13760;52.588;13.406;2023-03-19T01:54:43;7.50;99.90
25963;DHT22;13760;52.588;13.406;2023-03-19T01:57:11;7.40;99.90
25963;DHT22;13760;52.588;13.406;2023-03-19T01:59:44;7.40;99.90
25963;DHT22;13760;52.588;13.406;2023-03-19T02:02:28;7.40;99.90
25963;DHT22;13760;52.588;13.406;2023-03-19T02:05:05;7.40;99.90
25963;DHT22;13760;52.588;13.406;2023-03-19T02:07:33;7.40;99.90
25963;DHT22;13760;52.588;13.406;2023-03-19T02:10:00;7.40;99.90
25963;DHT22;13760;52.588;13.406;2023-03-19T02:12:27;7.40;99.90
25963;DHT22;13760;52.588;13.406;2023-03-19T02:14:53;7.40;99.90
25963;DHT22;13760;52.588;13.406;2023-03-19T02:17:20;7.40;99.90
25963;DHT22;13760;52.588;13.406;2023-03-19T02:22:18;7.40;99.90
25963;DHT22;13760;52.588;13.406;2023-03-19T02:25:10;7.40;99.90
25963;DHT22;13760;52.588;13.406;2023-03-19T02:27:37;7.40;99.90
25963;DHT22;13760;52.588;13.406;2023-03-19T02:32:47;7.40;99.90
25963;DHT22;13760;52.588;13.406;2023-03-19T02:35:13;7.40;99.90
25963;DHT22;13760;52.588;13.406;2023-03-19T02:37:38;7.40;99.90
25963;DHT22;13760;52.588;13.406;2023-03-19T02:40:08;7.40;99.90
25963;DHT22;13760;52.588;13.406;2023-03-19T02:42:35;7.40;99.90
25963;DHT22;13760;52.588;13.406;2023-03-19T02:45:00;7.40;99.90
25963;DHT22;13760;52.588;13.406;2023-03-19T02:47:26;7.40;99.90
25963;DHT22;13760;52.588;13.406;2023-03-19T02:49:52;7.40;99.90
25963;DHT22;13760;52.588;13.406;2023-03-19T02:52:18;7.40;99.90
25963;DHT22;13760;52.588;13.406;2023-03-19T02:54:44;7.40;99.90
25963;DHT22;13760;52.588;13.406;2023-03-19T02:57:11;7.40;99.90
25963;DHT22;13760;52.588;13.406;2023-03-19T02:59:36;7.40;99.90
25963;DHT22;13760;52.588;13.406;2023-03-19T03:02:03;7.40;99.90
25963;DHT22;13760;52.588;13.406;2023-03-19T03:04:29;7.40;99.90
25963;DHT22;13760;52.588;13.406;2023-03-19T03:06:55;7.50;99.90
25963;DHT22;13760;52.588;13.406;2023-03-19T03:09:22;7.50;99.90
25963;DHT22;13760;52.588;13.406;2023-03-19T03:11:47;7.50;99.90
25963;DHT22;13760;52.588;13.406;2023-03-19T03:14:13;7.50;99.90
25963;DHT22;13760;52.588;13.406;2023-03-19T03:16:38;7.50;99.90
25963;DHT22;13760;52.588;13.406;2023-03-19T03:19:04;7.50;99.90
25963;DHT22;13760;52.588;13.406;2023-03-19T03:21:30;7.60;99.90
25963;DHT22;13760;52.588;13.406;2023-03-19T03:23:56;7.60;99.90
25963;DHT22;13760;52.588;13.406;2023-03-19T03:26:21;7.60;99.90
25963;DHT22;13760;52.588;13.406;2023-03-19T03:28:47;7.60;99.90
25963;DHT22;13760;52.588;13.406;2023-03-19T03:31:13;7.60;99.90
25963;DHT22;13760;52.588;13.406;2023-03-19T03:33:39;7.60;99.90
25963;DHT22;13760;52.588;13.406;2023-03-19T03:36:05;7.70;99.90
25963;DHT22;13760;52.588;13.406;2023-03-19T03:38:31;7.70;99.90
25963;DHT22;13760;52.588;13.406;2023-03-19T03:40:57;7.70;99.90
25963;DHT22;13760;52.588;13.406;2023-03-19T03:43:24;7.60;99.90
25963;DHT22;13760;52.588;13.406;2023-03-19T03:45:49;7.70;99.90
25963;DHT22;13760;52.588;13.406;2023-03-19T03:48:15;7.60;99.90
25963;DHT22;13760;52.588;13.406;2023-03-19T03:50:42;7.60;99.90
25963;DHT22;13760;52.588;13.406;2023-03-19T03:53:07;7.60;99.90
25963;DHT22;13760;52.588;13.406;2023-03-19T03:55:34;7.60;99.90
25963;DHT22;13760;52.588;13.406;2023-03-19T03:57:59;7.70;99.90
25963;DHT22;13760;52.588;13.406;2023-03-19T04:00:25;7.70;99.90
25963;DHT22;13760;52.588;13.406;2023-03-19T04:02:51;7.70;99.90
25963;DHT22;13760;52.588;13.406;2023-03-19T04:05:16;7.70;99.90
25963;DHT22;13760;52.588;13.406;2023-03-19T04:07:42;7.70;99.90
25963;DHT22;13760;52.588;13.406;2023-03-19T04:10:09;7.70;99.90
25963;DHT22;13760;52.588;13.406;2023-03-19T04:12:36;7.70;99.90
25963;DHT22;13760;52.588;13.406;2023-03-19T04:15:03;7.70;99.90
25963;DHT22;13760;52.588;13.406;2023-03-19T04:17:29;7.70;99.90
25963;DHT22;13760;52.588;13.406;2023-03-19T04:19:56;7.70;99.90
25963;DHT22;13760;52.588;13.406;2023-03-19T04:22:21;7.70;99.90
25963;DHT22;13760;52.588;13.406;2023-03-19T04:24:47;7.70;99.90
25963;DHT22;13760;52.588;13.406;2023-03-19T04:27:12;7.70;99.90
25963;DHT22;13760;52.588;13.406;2023-03-19T04:29:38;7.70;99.90
25963;DHT22;13760;52.588;13.406;2023-03-19T04:32:04;7.70;99.90
25963;DHT22;13760;52.588;13.406;2023-03-19T04:34:29;7.70;99.90
25963;DHT22;13760;52.588;13.406;2023-03-19T04:36:56;7.70;99.90
25963;DHT22;13760;52.588;13.406;2023-03-19T04:39:22;7.70;99.90
25963;DHT22;13760;52.588;13.406;2023-03-19T04:41:48;7.80;99.90
25963;DHT22;13760;52.588;13.406;2023-03-19T04:44:14;7.70;99.90
25963;DHT22;13760;52.588;13.406;2023-03-19T04:46:40;7.70;99.90
25963;DHT22;13760;52.588;13.406;2023-03-19T04:49:06;7.80;99.90
25963;DHT22;13760;52.588;13.406;2023-03-19T04:51:32;7.70;99.90
25963;DHT22;13760;52.588;13.406;2023-03-19T04:53:57;7.70;99.90
25963;DHT22;13760;52.588;13.406;2023-03-19T04:56:24;7.70;99.90
25963;DHT22;13760;52.588;13.406;2023-03-19T04:58:49;7.80;99.90
25963;DHT22;13760;52.588;13.406;2023-03-19T05:01:15;7.80;99.90
25963;DHT22;13760;52.588;13.406;2023-03-19T05:03:41;7.80;99.90
25963;DHT22;13760;52.588;13.406;2023-03-19T05:06:07;7.90;99.90
25963;DHT22;13760;52.588;13.406;2023-03-19T05:08:32;7.90;99.90
25963;DHT22;13760;52.588;13.406;2023-03-19T05:10:58;7.90;99.90
25963;DHT22;13760;52.588;13.406;2023-03-19T05:13:23;7.90;99.90
25963;DHT22;13760;52.588;13.406;2023-03-19T05:15:52;8.00;99.90
25963;DHT22;13760;52.588;13.406;2023-03-19T05:18:18;8.00;99.90
25963;DHT22;13760;52.588;13.406;2023-03-19T05:20:44;8.00;99.90
25963;DHT22;13760;52.588;13.406;2023-03-19T05:23:10;8.00;99.90
25963;DHT22;13760;52.588;13.406;2023-03-19T05:25:35;8.00;99.90
25963;DHT22;13760;52.588;13.406;2023-03-19T05:28:02;8.00;99.90
25963;DHT22;13760;52.588;13.406;2023-03-19T05:30:27;8.00;99.90
25963;DHT22;13760;52.588;13.406;2023-03-19T05:32:56;8.00;99.90
25963;DHT22;13760;52.588;13.406;2023-03-19T05:35:22;8.00;99.90
25963;DHT22;13760;52.588;13.406;2023-03-19T05:37:48;8.00;99.90
25963;DHT22;13760;52.588;13.406;2023-03-19T05:40:14;7.90;99.90
25963;DHT22;13760;52.588;13.406;2023-03-19T05:42:41;7.90;99.90
25963;DHT22;13760;52.588;13.406;2023-03-19T05:45:07;7.90;99.90
25963;DHT22;13760;52.588;13.406;2023-03-19T05:47:32;7.90;99.90
25963;DHT22;13760;52.588;13.406;2023-03-19T05:49:59;7.80;99.90
25963;DHT22;13760;52.588;13.406;2023-03-19T05:52:25;7.80;99.90
25963;DHT22;13760;52.588;13.406;2023-03-19T05:54:50;7.80;99.90
25963;DHT22;13760;52.588;13.406;2023-03-19T05:57:16;7.80;99.90
25963;DHT22;13760;52.588;13.406;2023-03-19T05:59:42;7.80;99.90
25963;DHT22;13760;52.588;13.406;2023-03-19T06:02:07;7.70;99.90
25963;DHT22;13760;52.588;13.406;2023-03-19T06:04:33;7.70;99.90
25963;DHT22;13760;52.588;13.406;2023-03-19T06:06:59;7.70;99.90
25963;DHT22;13760;52.588;13.406;2023-03-19T06:09:25;7.70;99.90
25963;DHT22;13760;52.588;13.406;2023-03-19T06:11:50;7.80;99.90
25963;DHT22;13760;52.588;13.406;2023-03-19T06:14:16;7.90;99.90
25963;DHT22;13760;52.588;13.406;2023-03-19T06:16:41;7.90;99.90
25963;DHT22;13760;52.588;13.406;2023-03-19T06:19:07;8.00;99.90
25963;DHT22;13760;52.588;13.406;2023-03-19T06:21:32;8.00;99.90
25963;DHT22;13760;52.588;13.406;2023-03-19T06:23:58;8.00;99.90
25963;DHT22;13760;52.588;13.406;2023-03-19T06:26:24;8.10;99.90
25963;DHT22;13760;52.588;13.406;2023-03-19T06:28:50;8.10;99.90
25963;DHT22;13760;52.588;13.406;2023-03-19T06:31:16;8.20;99.90
25963;DHT22;13760;52.588;13.406;2023-03-19T06:33:42;8.30;99.90
25963;DHT22;13760;52.588;13.406;2023-03-19T06:36:08;8.30;99.90
25963;DHT22;13760;52.588;13.406;2023-03-19T06:38:33;8.30;99.90
25963;DHT22;13760;52.588;13.406;2023-03-19T06:41:00;8.40;99.90
25963;DHT22;13760;52.588;13.406;2023-03-19T06:43:26;8.50;99.90
25963;DHT22;13760;52.588;13.406;2023-03-19T06:45:52;8.50;99.90
25963;DHT22;13760;52.588;13.406;2023-03-19T06:48:18;8.60;99.90
25963;DHT22;13760;52.588;13.406;2023-03-19T06:50:46;8.70;99.90
25963;DHT22;13760;52.588;13.406;2023-03-19T06:53:13;8.80;99.90
25963;DHT22;13760;52.588;13.406;2023-03-19T06:55:39;8.90;99.90
25963;DHT22;13760;52.588;13.406;2023-03-19T06:58:05;9.00;99.90
25963;DHT22;13760;52.588;13.406;2023-03-19T07:00:31;9.20;99.90
25963;DHT22;13760;52.588;13.406;2023-03-19T07:02:58;9.20;99.90
25963;DHT22;13760;52.588;13.406;2023-03-19T07:05:23;9.20;99.90
25963;DHT22;13760;52.588;13.406;2023-03-19T07:07:51;9.10;99.90
25963;DHT22;13760;52.588;13.406;2023-03-19T07:10:19;9.10;99.90
25963;DHT22;13760;52.588;13.406;2023-03-19T07:12:44;9.10;99.90
25963;DHT22;13760;52.588;13.406;2023-03-19T07:15:10;9.10;99.90
25963;DHT22;13760;52.588;13.406;2023-03-19T07:17:36;9.00;99.90
25963;DHT22;13760;52.588;13.406;2023-03-19T07:20:02;9.00;99.90
25963;DHT22;13760;52.588;13.406;2023-03-19T07:22:28;9.00;99.90
25963;DHT22;13760;52.588;13.406;2023-03-19T07:24:53;8.90;99.90
25963;DHT22;13760;52.588;13.406;2023-03-19T07:27:19;8.90;99.90
25963;DHT22;13760;52.588;13.406;2023-03-19T07:29:45;8.90;99.90
25963;DHT22;13760;52.588;13.406;2023-03-19T07:32:10;8.90;99.90
25963;DHT22;13760;52.588;13.406;2023-03-19T07:34:36;8.90;99.90
25963;DHT22;13760;52.588;13.406;2023-03-19T07:37:02;8.90;99.90
25963;DHT22;13760;52.588;13.406;2023-03-19T07:39:27;8.90;99.90
25963;DHT22;13760;52.588;13.406;2023-03-19T07:41:56;8.90;99.90
25963;DHT22;13760;52.588;13.406;2023-03-19T07:44:21;8.90;99.90
25963;DHT22;13760;52.588;13.406;2023-03-19T07:46:47;8.80;99.90
25963;DHT22;13760;52.588;13.406;2023-03-19T07:49:12;8.80;99.90
25963;DHT22;13760;52.588;13.406;2023-03-19T07:51:38;8.80;99.90
25963;DHT22;13760;52.588;13.406;2023-03-19T07:54:04;8.80;99.90
25963;DHT22;13760;52.588;13.406;2023-03-19T07:56:35;8.80;99.90
25963;DHT22;13760;52.588;13.406;2023-03-19T07:59:03;8.80;99.90
25963;DHT22;13760;52.588;13.406;2023-03-19T08:01:30;8.80;99.90
25963;DHT22;13760;52.588;13.406;2023-03-19T08:03:58;8.80;99.90
25963;DHT22;13760;52.588;13.406;2023-03-19T08:06:24;8.90;99.90
25963;DHT22;13760;52.588;13.406;2023-03-19T08:08:50;8.90;99.90
25963;DHT22;13760;52.588;13.406;2023-03-19T08:11:16;9.00;99.90
25963;DHT22;13760;52.588;13.406;2023-03-19T08:13:42;9.00;99.90
25963;DHT22;13760;52.588;13.406;2023-03-19T08:16:08;9.00;99.90
25963;DHT22;13760;52.588;13.406;2023-03-19T08:18:35;9.10;99.90
25963;DHT22;13760;52.588;13.406;2023-03-19T08:21:00;9.10;99.90
25963;DHT22;13760;52.588;13.406;2023-03-19T08:23:26;9.10;99.90
25963;DHT22;13760;52.588;13.406;2023-03-19T08:25:52;9.10;99.90
25963;DHT22;13760;52.588;13.406;2023-03-19T08:28:19;9.10;99.90
25963;DHT22;13760;52.588;13.406;2023-03-19T08:30:44;9.10;99.90
25963;DHT22;13760;52.588;13.406;2023-03-19T08:33:13;9.20;99.90
25963;DHT22;13760;52.588;13.406;2023-03-19T08:35:46;9.20;99.90
25963;DHT22;13760;52.588;13.406;2023-03-19T08:38:13;9.20;99.90
25963;DHT22;13760;52.588;13.406;2023-03-19T08:40:38;9.20;99.90
25963;DHT22;13760;52.588;13.406;2023-03-19T08:43:04;9.20;99.90
25963;DHT22;13760;52.588;13.406;2023-03-19T08:45:31;9.20;99.90
25963;DHT22;13760;52.588;13.406;2023-03-19T08:47:56;9.20;99.90
25963;DHT22;13760;52.588;13.406;2023-03-19T08:50:22;9.20;99.90
25963;DHT22;13760;52.588;13.406;2023-03-19T08:52:48;9.10;99.90
25963;DHT22;13760;52.588;13.406;2023-03-19T08:55:14;9.10;99.90
25963;DHT22;13760;52.588;13.406;2023-03-19T08:57:40;9.00;99.90
25963;DHT22;13760;52.588;13.406;2023-03-19T09:00:07;8.90;99.90
25963;DHT22;13760;52.588;13.406;2023-03-19T09:02:32;8.90;99.90
25963;DHT22;13760;52.588;13.406;2023-03-19T09:04:58;8.90;99.90
25963;DHT22;13760;52.588;13.406;2023-03-19T09:07:24;8.90;99.90
25963;DHT22;13760;52.588;13.406;2023-03-19T09:09:50;8.90;99.90
25963;DHT22;13760;52.588;13.406;2023-03-19T09:12:16;8.90;99.90
25963;DHT22;13760;52.588;13.406;2023-03-19T09:14:42;8.90;99.90
25963;DHT22;13760;52.588;13.406;2023-03-19T09:17:08;8.90;99.90
25963;DHT22;13760;52.588;13.406;2023-03-19T09:19:34;8.80;99.90
25963;DHT22;13760;52.588;13.406;2023-03-19T09:22:01;8.80;99.90
25963;DHT22;13760;52.588;13.406;2023-03-19T09:24:26;8.80;99.90
25963;DHT22;13760;52.588;13.406;2023-03-19T09:26:52;8.90;99.90
25963;DHT22;13760;52.588;13.406;2023-03-19T09:29:18;8.90;99.90
25963;DHT22;13760;52.588;13.406;2023-03-19T09:31:43;8.90;99.90
25963;DHT22;13760;52.588;13.406;2023-03-19T09:34:09;9.00;99.90
25963;DHT22;13760;52.588;13.406;2023-03-19T09:36:36;9.00;99.90
25963;DHT22;13760;52.588;13.406;2023-03-19T09:39:03;9.00;99.90
25963;DHT22;13760;52.588;13.406;2023-03-19T09:41:47;9.00;99.90
25963;DHT22;13760;52.588;13.406;2023-03-19T09:44:20;9.00;99.90
25963;DHT22;13760;52.588;13.406;2023-03-19T09:49:46;9.00;99.90
25963;DHT22;13760;52.588;13.406;2023-03-19T09:54:49;9.20;99.90
25963;DHT22;13760;52.588;13.406;2023-03-19T09:57:17;9.20;99.90
25963;DHT22;13760;52.588;13.406;2023-03-19T09:59:43;9.30;99.90
25963;DHT22;13760;52.588;13.406;2023-03-19T10:07:37;9.90;99.90
25963;DHT22;13760;52.588;13.406;2023-03-19T10:10:15;10.20;99.90
25963;DHT22;13760;52.588;13.406;2023-03-19T10:12:58;10.30;99.90
25963;DHT22;13760;52.588;13.406;2023-03-19T10:15:31;10.40;99.90
25963;DHT22;13760;52.588;13.406;2023-03-19T10:18:16;10.50;99.90
25963;DHT22;13760;52.588;13.406;2023-03-19T10:20:56;10.50;99.90
25963;DHT22;13760;52.588;13.406;2023-03-19T10:23:46;10.60;99.90
25963;DHT22;13760;52.588;13.406;2023-03-19T10:26:19;10.70;99.90
25963;DHT22;13760;52.588;13.406;2023-03-19T10:29:12;10.70;99.90
25963;DHT22;13760;52.588;13.406;2023-03-19T10:34:28;10.70;99.90
25963;DHT22;13760;52.588;13.406;2023-03-19T10:37:16;10.60;99.90
25963;DHT22;13760;52.588;13.406;2023-03-19T10:39:45;10.60;99.90
25963;DHT22;13760;52.588;13.406;2023-03-19T10:42:20;10.60;99.90
25963;DHT22;13760;52.588;13.406;2023-03-19T10:44:58;10.70;99.90
25963;DHT22;13760;52.588;13.406;2023-03-19T10:47:26;10.80;99.90
25963;DHT22;13760;52.588;13.406;2023-03-19T10:49:52;10.90;99.90
25963;DHT22;13760;52.588;13.406;2023-03-19T10:52:19;10.90;99.90
25963;DHT22;13760;52.588;13.406;2023-03-19T10:54:45;11.10;99.90
25963;DHT22;13760;52.588;13.406;2023-03-19T10:57:29;11.20;99.90
25963;DHT22;13760;52.588;13.406;2023-03-19T11:00:04;11.30;99.90
25963;DHT22;13760;52.588;13.406;2023-03-19T11:02:30;11.40;99.90
25963;DHT22;13760;52.588;13.406;2023-03-19T11:05:21;11.40;99.90
25963;DHT22;13760;52.588;13.406;2023-03-19T11:07:49;11.40;99.90
25963;DHT22;13760;52.588;13.406;2023-03-19T11:10:16;11.50;99.90
25963;DHT22;13760;52.588;13.406;2023-03-19T11:13:22;11.70;99.90
25963;DHT22;13760;52.588;13.406;2023-03-19T11:15:52;11.80;99.90
25963;DHT22;13760;52.588;13.406;2023-03-19T11:18:21;11.80;99.90
25963;DHT22;13760;52.588;13.406;2023-03-19T11:21:04;11.80;99.90
25963;DHT22;13760;52.588;13.406;2023-03-19T11:23:40;11.90;99.90
25963;DHT22;13760;52.588;13.406;2023-03-19T11:26:06;12.00;99.90
25963;DHT22;13760;52.588;13.406;2023-03-19T11:28:36;12.00;99.90
25963;DHT22;13760;52.588;13.406;2023-03-19T11:31:14;12.10;99.90
25963;DHT22;13760;52.588;13.406;2023-03-19T11:41:53;12.00;99.90
25963;DHT22;13760;52.588;13.406;2023-03-19T11:44:52;12.00;99.90
25963;DHT22;13760;52.588;13.406;2023-03-19T11:47:49;12.00;99.90
25963;DHT22;13760;52.588;13.406;2023-03-19T11:50:25;11.90;99.90
25963;DHT22;13760;52.588;13.406;2023-03-19T11:55:56;11.80;99.90
25963;DHT22;13760;52.588;13.406;2023-03-19T11:58:49;11.80;99.90
25963;DHT22;13760;52.588;13.406;2023-03-19T12:04:28;12.00;99.90
25963;DHT22;13760;52.588;13.406;2023-03-19T12:09:39;12.10;99.90
25963;DHT22;13760;52.588;13.406;2023-03-19T12:12:20;12.00;99.90
25963;DHT22;13760;52.588;13.406;2023-03-19T12:14:57;12.10;99.90
25963;DHT22;13760;52.588;13.406;2023-03-19T12:18:12;12.10;99.90
25963;DHT22;13760;52.588;13.406;2023-03-19T12:23:36;12.00;99.90
25963;DHT22;13760;52.588;13.406;2023-03-19T12:26:20;12.00;99.90
25963;DHT22;13760;52.588;13.406;2023-03-19T12:29:12;12.00;99.90
25963;DHT22;13760;52.588;13.406;2023-03-19T12:31:59;12.00;99.90
25963;DHT22;13760;52.588;13.406;2023-03-19T12:34:53;12.10;99.90
25963;DHT22;13760;52.588;13.406;2023-03-19T12:37:30;12.10;99.90
25963;DHT22;13760;52.588;13.406;2023-03-19T12:40:06;12.20;99.90
25963;DHT22;13760;52.588;13.406;2023-03-19T12:42:38;12.20;99.90
25963;DHT22;13760;52.588;13.406;2023-03-19T12:47:45;12.40;99.90
25963;DHT22;13760;52.588;13.406;2023-03-19T12:50:17;12.50;99.90
25963;DHT22;13760;52.588;13.406;2023-03-19T12:52:52;12.50;99.90
25963;DHT22;13760;52.588;13.406;2023-03-19T12:55:34;12.50;99.90
25963;DHT22;13760;52.588;13.406;2023-03-19T13:01:18;12.80;99.90
25963;DHT22;13760;52.588;13.406;2023-03-19T13:03:53;12.90;99.90
25963;DHT22;13760;52.588;13.406;2023-03-19T13:06:36;13.10;99.90
25963;DHT22;13760;52.588;13.406;2023-03-19T13:09:15;13.30;99.90
25963;DHT22;13760;52.588;13.406;2023-03-19T13:11:57;13.30;99.90
25963;DHT22;13760;52.588;13.406;2023-03-19T13:19:52;13.60;99.90
25963;DHT22;13760;52.588;13.406;2023-03-19T13:22:31;13.80;99.90
25963;DHT22;13760;52.588;13.406;2023-03-19T13:25:00;13.90;99.90
25963;DHT22;13760;52.588;13.406;2023-03-19T13:27:32;13.90;99.90
25963;DHT22;13760;52.588;13.406;2023-03-19T13:33:02;14.00;99.90
25963;DHT22;13760;52.588;13.406;2023-03-19T13:35:42;14.00;99.90
25963;DHT22;13760;52.588;13.406;2023-03-19T13:48:38;14.50;99.90
25963;DHT22;13760;52.588;13.406;2023-03-19T13:54:14;14.60;99.90
25963;DHT22;13760;52.588;13.406;2023-03-19T13:56:54;14.70;99.90
25963;DHT22;13760;52.588;13.406;2023-03-19T14:01:54;14.80;99.90
25963;DHT22;13760;52.588;13.406;2023-03-19T14:04:33;14.70;99.90
25963;DHT22;13760;52.588;13.406;2023-03-19T14:07:16;14.70;99.90
25963;DHT22;13760;52.588;13.406;2023-03-19T14:09:45;14.70;99.90
25963;DHT22;13760;52.588;13.406;2023-03-19T14:14:57;14.70;99.90
25963;DHT22;13760;52.588;13.406;2023-03-19T14:17:30;14.80;99.90
25963;DHT22;13760;52.588;13.406;2023-03-19T14:22:39;14.80;99.90
25963;DHT22;13760;52.588;13.406;2023-03-19T14:25:25;14.90;99.90
25963;DHT22;13760;52.588;13.406;2023-03-19T14:27:59;15.00;99.90
25963;DHT22;13760;52.588;13.406;2023-03-19T14:30:33;15.00;99.90
25963;DHT22;13760;52.588;13.406;2023-03-19T14:33:07;15.10;99.90
25963;DHT22;13760;52.588;13.406;2023-03-19T14:35:40;15.10;99.90
25963;DHT22;13760;52.588;13.406;2023-03-19T14:38:22;15.20;99.90
25963;DHT22;13760;52.588;13.406;2023-03-19T14:40:50;15.30;99.90
25963;DHT22;13760;52.588;13.406;2023-03-19T14:46:21;15.50;99.90
25963;DHT22;13760;52.588;13.406;2023-03-19T14:52:35;15.50;99.90
25963;DHT22;13760;52.588;13.406;2023-03-19T14:57:27;15.50;99.90
25963;DHT22;13760;52.588;13.406;2023-03-19T14:59:54;15.50;99.90
25963;DHT22;13760;52.588;13.406;2023-03-19T15:04:59;15.40;99.90
25963;DHT22;13760;52.588;13.406;2023-03-19T15:07:42;15.40;99.90
25963;DHT22;13760;52.588;13.406;2023-03-19T15:10:16;15.50;99.90
25963;DHT22;13760;52.588;13.406;2023-03-19T15:13:14;15.40;99.90
25963;DHT22;13760;52.588;13.406;2023-03-19T15:18:59;15.40;99.90
25963;DHT22;13760;52.588;13.406;2023-03-19T15:21:28;15.30;99.90
25963;DHT22;13760;52.588;13.406;2023-03-19T15:23:55;15.30;99.90
25963;DHT22;13760;52.588;13.406;2023-03-19T15:26:35;15.30;99.90
25963;DHT22;13760;52.588;13.406;2023-03-19T15:29:01;15.20;99.90
25963;DHT22;13760;52.588;13.406;2023-03-19T15:31:48;15.20;99.90
25963;DHT22;13760;52.588;13.406;2023-03-19T15:34:24;15.10;99.90
25963;DHT22;13760;52.588;13.406;2023-03-19T15:39:29;15.10;99.90
25963;DHT22;13760;52.588;13.406;2023-03-19T15:41:58;15.10;99.90
25963;DHT22;13760;52.588;13.406;2023-03-19T15:44:37;15.10;99.90
25963;DHT22;13760;52.588;13.406;2023-03-19T15:47:07;15.00;99.90
25963;DHT22;13760;52.588;13.406;2023-03-19T15:49:43;15.10;99.90
25963;DHT22;13760;52.588;13.406;2023-03-19T15:52:15;15.10;99.90
25963;DHT22;13760;52.588;13.406;2023-03-19T15:54:42;15.10;99.90
25963;DHT22;13760;52.588;13.406;2023-03-19T15:57:10;15.10;99.90
25963;DHT22;13760;52.588;13.406;2023-03-19T15:59:36;15.10;99.90
25963;DHT22;13760;52.588;13.406;2023-03-19T16:02:07;15.10;99.90
25963;DHT22;13760;52.588;13.406;2023-03-19T16:04:37;15.20;99.90
25963;DHT22;13760;52.588;13.406;2023-03-19T16:07:02;15.20;99.90
25963;DHT22;13760;52.588;13.406;2023-03-19T16:11:55;15.30;99.90
25963;DHT22;13760;52.588;13.406;2023-03-19T16:16:59;15.30;99.90
25963;DHT22;13760;52.588;13.406;2023-03-19T16:19:29;15.20;99.90
25963;DHT22;13760;52.588;13.406;2023-03-19T16:21:55;15.10;99.90
25963;DHT22;13760;52.588;13.406;2023-03-19T16:24:29;15.10;99.90
25963;DHT22;13760;52.588;13.406;2023-03-19T16:27:00;15.00;99.90
25963;DHT22;13760;52.588;13.406;2023-03-19T16:29:28;15.00;99.90
25963;DHT22;13760;52.588;13.406;2023-03-19T16:31:59;15.00;99.90
25963;DHT22;13760;52.588;13.406;2023-03-19T16:37:44;14.90;99.90
25963;DHT22;13760;52.588;13.406;2023-03-19T16:42:44;14.80;99.90
25963;DHT22;13760;52.588;13.406;2023-03-19T16:47:43;14.60;99.90
25963;DHT22;13760;52.588;13.406;2023-03-19T16:50:09;14.50;99.90
25963;DHT22;13760;52.588;13.406;2023-03-19T16:52:36;14.40;99.90
25963;DHT22;13760;52.588;13.406;2023-03-19T16:55:09;14.40;99.90
25963;DHT22;13760;52.588;13.406;2023-03-19T16:57:40;14.30;99.90
25963;DHT22;13760;52.588;13.406;2023-03-19T17:00:09;14.20;99.90
25963;DHT22;13760;52.588;13.406;2023-03-19T17:02:34;14.00;99.90
25963;DHT22;13760;52.588;13.406;2023-03-19T17:05:00;13.90;99.90
25963;DHT22;13760;52.588;13.406;2023-03-19T17:07:25;13.90;99.90
25963;DHT22;13760;52.588;13.406;2023-03-19T17:09:51;13.80;99.90
25963;DHT22;13760;52.588;13.406;2023-03-19T17:12:16;13.70;99.90
25963;DHT22;13760;52.588;13.406;2023-03-19T17:14:42;13.60;99.90
25963;DHT22;13760;52.588;13.406;2023-03-19T17:17:16;13.50;99.90
25963;DHT22;13760;52.588;13.406;2023-03-19T17:19:44;13.50;99.90
25963;DHT22;13760;52.588;13.406;2023-03-19T17:22:11;13.30;99.90
25963;DHT22;13760;52.588;13.406;2023-03-19T17:24:39;13.20;99.90